Decoded Metar for LZKZ (KOSICE in SLOVAKIA) (IATA:KSC) | Meteo·Mobile Aviation Weather
aviador You're here:

LZKZ Decoded Metar

KOSICE in SLOVAKIA
Report Time2018-11-12 18:00:00
UTC Time2018-11-12 18:19:16
Flight Rules vfr VFR
Wind330° at 03 kt
W.Decomp.*RWY 01: 2.1 kt HW 2.1 kt LCW
W.Rank330° ranks 19
Current wind is below 330° avg. (4.2)
Visibility8000 m
Phenomena:N/A
Clouds:N/A
Expected CloudBase > 800 ft AGL from Temp-Dew spread
CeilingNone
Temp08°C (ISA -5)
Dew Point06°C (87% RH)
AAT6.0°C
QNH1027 hPa
Density Alt-240 ft
Elevation761 ft
Report Wrong Elevation
Raw Report
LZKZ 121800Z 33003KT 8000 NSC 08/06 Q1027=

Extra information for LZKZ:More info

Metar Taf Metar & Taf Last 4 Metars F.Rules Stats Wind Profile Meteogram Temp Stats Airport Information Weather charts Add Link Nearby VenuesMetar ALERT Operation Metar Decoded Social comments